This is the latest recevied weather packets stored in our database for station/object KN6DHD. If no packets are shown the sender has not sent any weather packets the latest 10 day(s).
| Time | Temp. | Humidity | Pressure | Rain* | Wind** | Luminosity | Snow |
|---|---|---|---|---|---|---|---|
| 1777328831 | 21.67° C | 47% | 1016.5 hPa | 0 mm | - | 156 W/m² | - |
| 1777328529 | 22.22° C | 45% | 1016.6 hPa | 0 mm | - | 285 W/m² | - |
| 1777328227 | 21.11° C | 45% | 1016.6 hPa | 0 mm | - | 778 W/m² | - |
| 1777327925 | 21.11° C | 45% | 1016.8 hPa | 0 mm | - | 176 W/m² | - |
| 1777327623 | 21.11° C | 47% | 1016.7 hPa | 0 mm | - | 125 W/m² | - |
| 1777327320 | 21.67° C | 47% | 1017 hPa | 0 mm | - | 133 W/m² | - |
| 1777327017 | 21.67° C | 47% | 1016.8 hPa | 0 mm | - | 742 W/m² | - |
| 1777326714 | 21.67° C | 48% | 1016.8 hPa | 0 mm | - | 764 W/m² | - |
| 1777326411 | 21.67° C | 48% | 1017.1 hPa | 0 mm | - | 778 W/m² | - |
| 1777326109 | 20.56° C | 48% | 1016.9 hPa | 0 mm | - | 762 W/m² | - |
| 1777325807 | 21.11° C | 49% | 1017.1 hPa | 0 mm | - | 745 W/m² | - |
| 1777325504 | 21.11° C | 48% | 1017 hPa | 0 mm | - | 708 W/m² | - |
| 1777325202 | 20.56° C | 51% | 1017.4 hPa | 0 mm | - | 687 W/m² | - |
| 1777324898 | 21.11° C | 50% | 1017.1 hPa | 0 mm | - | 675 W/m² | - |
| 1777324596 | 20.56° C | 50% | 1017.3 hPa | 0 mm | - | 699 W/m² | - |
| 1777324293 | 20.56° C | 51% | 1017.3 hPa | 0 mm | - | 685 W/m² | - |
| 1777323991 | 20° C | 53% | 1017.2 hPa | 0 mm | - | 708 W/m² | - |
| 1777323688 | 18.33° C | 56% | 1017.4 hPa | 0 mm | - | 735 W/m² | - |
| 1777323385 | 18.89° C | 54% | 1017.2 hPa | 0 mm | - | 161 W/m² | - |
| 1777323083 | 19.44° C | 55% | 1017.4 hPa | 0 mm | - | 134 W/m² | - |
| 1777322781 | 19.44° C | 53% | 1017.3 hPa | 0 mm | - | 154 W/m² | - |
| 1777322478 | 18.89° C | 56% | 1017.3 hPa | 0 mm | - | 150 W/m² | - |
| 1777322175 | 18.33° C | 56% | 1017.3 hPa | 0 mm | - | 154 W/m² | - |
| 1777321872 | 20° C | 54% | 1017.4 hPa | 0 mm | - | 176 W/m² | - |
| 1777321569 | 20° C | 53% | 1017.4 hPa | 0 mm | - | 200 W/m² | - |
* Rain latest hour (hover to see other rain measurements)
** Current wind speed in m/s (hover to see current wind gust speed)